Weyburn, Canada
Current Conditions -  °F | °C
As of 12:00 PM on Sunday 21 Dec 2014 (Local Time) from CYEN Reporting Station
Few Clouds Few Clouds  
Wind Chill: 19°   Ceiling: Unl
Heat Index: 27°   Visibility: 15mi
Dew Point: 25°   Wind: 7mph
Humidity: 93%   Direction: 120°ESE
Pressure: 29.41"   Gusts: NA
Location:  49.67°N, 103.86°W
Report Text: CYEN 211800Z 12006KT 15SM FEW100 FEW230 M03/M04 A2941 RMKACC1CI1 SLP992
Loading
Personal Weather Stations






























Interactive Weather Map New forecast layout! Learn more

10-Day Weather Forecast

Advertisements
Track Severe Weather on mobile